sensor_id;sensor_type;location;lat;lon;timestamp;P1;durP1;ratioP1;P2;durP2;ratioP2
21519;SDS011;10921;53.614;9.882;2023-04-24T00:02:02;40.38;;;36.90;;
21519;SDS011;10921;53.614;9.882;2023-04-24T00:04:29;40.58;;;36.92;;
21519;SDS011;10921;53.614;9.882;2023-04-24T00:06:58;41.65;;;38.05;;
21519;SDS011;10921;53.614;9.882;2023-04-24T00:09:26;40.95;;;37.45;;
21519;SDS011;10921;53.614;9.882;2023-04-24T00:11:52;41.47;;;38.03;;
21519;SDS011;10921;53.614;9.882;2023-04-24T00:14:19;45.08;;;40.97;;
21519;SDS011;10921;53.614;9.882;2023-04-24T00:16:46;43.58;;;39.65;;
21519;SDS011;10921;53.614;9.882;2023-04-24T00:19:12;42.80;;;38.92;;
21519;SDS011;10921;53.614;9.882;2023-04-24T00:21:39;43.50;;;39.60;;
21519;SDS011;10921;53.614;9.882;2023-04-24T00:24:06;42.25;;;38.45;;
21519;SDS011;10921;53.614;9.882;2023-04-24T00:26:35;41.83;;;38.22;;
21519;SDS011;10921;53.614;9.882;2023-04-24T00:29:01;42.50;;;38.63;;
21519;SDS011;10921;53.614;9.882;2023-04-24T00:31:27;41.20;;;37.90;;
21519;SDS011;10921;53.614;9.882;2023-04-24T00:33:54;42.58;;;38.88;;
21519;SDS011;10921;53.614;9.882;2023-04-24T00:36:25;43.15;;;39.35;;
21519;SDS011;10921;53.614;9.882;2023-04-24T00:38:53;42.63;;;38.92;;
21519;SDS011;10921;53.614;9.882;2023-04-24T00:41:20;42.75;;;38.95;;
21519;SDS011;10921;53.614;9.882;2023-04-24T00:43:47;41.97;;;38.47;;
21519;SDS011;10921;53.614;9.882;2023-04-24T00:46:14;43.33;;;39.53;;
21519;SDS011;10921;53.614;9.882;2023-04-24T00:48:42;41.88;;;38.17;;
21519;SDS011;10921;53.614;9.882;2023-04-24T00:51:09;42.90;;;38.85;;
21519;SDS011;10921;53.614;9.882;2023-04-24T00:53:36;42.65;;;38.85;;
21519;SDS011;10921;53.614;9.882;2023-04-24T00:56:03;43.55;;;39.75;;
21519;SDS011;10921;53.614;9.882;2023-04-24T00:58:31;42.60;;;38.95;;
21519;SDS011;10921;53.614;9.882;2023-04-24T01:00:58;43.92;;;39.67;;
21519;SDS011;10921;53.614;9.882;2023-04-24T01:03:28;42.45;;;38.85;;
21519;SDS011;10921;53.614;9.882;2023-04-24T01:05:58;41.90;;;38.40;;
21519;SDS011;10921;53.614;9.882;2023-04-24T01:08:24;42.38;;;38.78;;
21519;SDS011;10921;53.614;9.882;2023-04-24T01:10:54;43.00;;;39.20;;
21519;SDS011;10921;53.614;9.882;2023-04-24T01:13:23;43.10;;;39.20;;
21519;SDS011;10921;53.614;9.882;2023-04-24T01:15:50;42.25;;;38.45;;
21519;SDS011;10921;53.614;9.882;2023-04-24T01:18:16;42.53;;;38.70;;
21519;SDS011;10921;53.614;9.882;2023-04-24T01:20:43;42.63;;;38.60;;
21519;SDS011;10921;53.614;9.882;2023-04-24T01:23:12;42.30;;;38.38;;
21519;SDS011;10921;53.614;9.882;2023-04-24T01:25:39;42.40;;;38.70;;
21519;SDS011;10921;53.614;9.882;2023-04-24T01:28:06;41.47;;;37.88;;
21519;SDS011;10921;53.614;9.882;2023-04-24T01:30:33;42.55;;;38.85;;
21519;SDS011;10921;53.614;9.882;2023-04-24T01:32:59;41.85;;;38.10;;
21519;SDS011;10921;53.614;9.882;2023-04-24T01:35:27;40.88;;;37.22;;
21519;SDS011;10921;53.614;9.882;2023-04-24T01:37:53;40.65;;;37.25;;
21519;SDS011;10921;53.614;9.882;2023-04-24T01:40:20;40.13;;;36.63;;
21519;SDS011;10921;53.614;9.882;2023-04-24T01:42:47;38.90;;;35.65;;
21519;SDS011;10921;53.614;9.882;2023-04-24T01:45:14;40.22;;;36.55;;
21519;SDS011;10921;53.614;9.882;2023-04-24T01:47:40;39.63;;;36.35;;
21519;SDS011;10921;53.614;9.882;2023-04-24T01:50:08;39.67;;;36.17;;
21519;SDS011;10921;53.614;9.882;2023-04-24T01:52:35;39.00;;;35.58;;
21519;SDS011;10921;53.614;9.882;2023-04-24T01:55:02;38.60;;;35.40;;
21519;SDS011;10921;53.614;9.882;2023-04-24T01:57:30;36.97;;;33.97;;
21519;SDS011;10921;53.614;9.882;2023-04-24T01:59:57;36.25;;;33.25;;
21519;SDS011;10921;53.614;9.882;2023-04-24T02:02:24;36.53;;;33.60;;
21519;SDS011;10921;53.614;9.882;2023-04-24T02:04:53;34.77;;;32.07;;
21519;SDS011;10921;53.614;9.882;2023-04-24T02:07:20;33.60;;;30.73;;
21519;SDS011;10921;53.614;9.882;2023-04-24T02:09:47;33.10;;;30.58;;
21519;SDS011;10921;53.614;9.882;2023-04-24T02:12:14;32.80;;;30.20;;
21519;SDS011;10921;53.614;9.882;2023-04-24T02:14:41;32.15;;;29.65;;
21519;SDS011;10921;53.614;9.882;2023-04-24T02:17:08;31.42;;;28.92;;
21519;SDS011;10921;53.614;9.882;2023-04-24T02:19:35;31.70;;;29.30;;
21519;SDS011;10921;53.614;9.882;2023-04-24T02:22:01;30.60;;;28.25;;
21519;SDS011;10921;53.614;9.882;2023-04-24T02:24:28;29.92;;;27.75;;
21519;SDS011;10921;53.614;9.882;2023-04-24T02:26:54;29.50;;;27.20;;
21519;SDS011;10921;53.614;9.882;2023-04-24T02:29:21;28.23;;;26.02;;
21519;SDS011;10921;53.614;9.882;2023-04-24T02:31:48;29.20;;;26.75;;
21519;SDS011;10921;53.614;9.882;2023-04-24T02:34:15;27.40;;;25.20;;
21519;SDS011;10921;53.614;9.882;2023-04-24T02:36:42;26.40;;;24.50;;
21519;SDS011;10921;53.614;9.882;2023-04-24T02:39:08;26.60;;;24.52;;
21519;SDS011;10921;53.614;9.882;2023-04-24T02:41:35;25.88;;;24.02;;
21519;SDS011;10921;53.614;9.882;2023-04-24T02:44:02;25.95;;;23.95;;
21519;SDS011;10921;53.614;9.882;2023-04-24T02:46:28;25.35;;;23.55;;
21519;SDS011;10921;53.614;9.882;2023-04-24T02:48:55;24.70;;;23.00;;
21519;SDS011;10921;53.614;9.882;2023-04-24T02:51:21;25.00;;;23.30;;
21519;SDS011;10921;53.614;9.882;2023-04-24T02:53:48;25.85;;;23.98;;
21519;SDS011;10921;53.614;9.882;2023-04-24T02:56:14;26.17;;;24.38;;
21519;SDS011;10921;53.614;9.882;2023-04-24T02:58:41;25.30;;;23.50;;
21519;SDS011;10921;53.614;9.882;2023-04-24T03:01:08;25.23;;;23.52;;
21519;SDS011;10921;53.614;9.882;2023-04-24T03:03:37;26.25;;;24.25;;
21519;SDS011;10921;53.614;9.882;2023-04-24T03:06:04;25.60;;;23.75;;
21519;SDS011;10921;53.614;9.882;2023-04-24T03:08:32;26.52;;;24.63;;
21519;SDS011;10921;53.614;9.882;2023-04-24T03:10:58;26.40;;;24.52;;
21519;SDS011;10921;53.614;9.882;2023-04-24T03:13:25;26.60;;;24.80;;
21519;SDS011;10921;53.614;9.882;2023-04-24T03:15:52;26.30;;;24.40;;
21519;SDS011;10921;53.614;9.882;2023-04-24T03:18:20;27.02;;;24.92;;
21519;SDS011;10921;53.614;9.882;2023-04-24T03:20:46;26.65;;;24.70;;
21519;SDS011;10921;53.614;9.882;2023-04-24T03:23:13;26.42;;;24.45;;
21519;SDS011;10921;53.614;9.882;2023-04-24T03:25:40;26.98;;;24.92;;
21519;SDS011;10921;53.614;9.882;2023-04-24T03:28:08;25.95;;;24.15;;
21519;SDS011;10921;53.614;9.882;2023-04-24T03:30:35;27.10;;;25.00;;
21519;SDS011;10921;53.614;9.882;2023-04-24T03:33:01;26.50;;;24.50;;
21519;SDS011;10921;53.614;9.882;2023-04-24T03:35:28;25.83;;;23.95;;
21519;SDS011;10921;53.614;9.882;2023-04-24T03:37:54;26.13;;;23.70;;
21519;SDS011;10921;53.614;9.882;2023-04-24T03:40:21;25.52;;;23.73;;
21519;SDS011;10921;53.614;9.882;2023-04-24T03:42:48;26.77;;;24.77;;
21519;SDS011;10921;53.614;9.882;2023-04-24T03:45:14;25.15;;;23.35;;
21519;SDS011;10921;53.614;9.882;2023-04-24T03:47:41;25.42;;;23.60;;
21519;SDS011;10921;53.614;9.882;2023-04-24T03:50:07;25.52;;;23.65;;
21519;SDS011;10921;53.614;9.882;2023-04-24T03:52:36;24.88;;;23.17;;
21519;SDS011;10921;53.614;9.882;2023-04-24T03:55:03;25.20;;;23.50;;
21519;SDS011;10921;53.614;9.882;2023-04-24T03:57:30;23.35;;;21.75;;
21519;SDS011;10921;53.614;9.882;2023-04-24T04:00:00;23.77;;;22.05;;
21519;SDS011;10921;53.614;9.882;2023-04-24T04:02:32;23.38;;;21.75;;
21519;SDS011;10921;53.614;9.882;2023-04-24T04:04:59;23.25;;;21.45;;
21519;SDS011;10921;53.614;9.882;2023-04-24T04:07:25;22.60;;;20.85;;
21519;SDS011;10921;53.614;9.882;2023-04-24T04:09:52;21.92;;;20.27;;
21519;SDS011;10921;53.614;9.882;2023-04-24T04:12:18;21.85;;;20.33;;
21519;SDS011;10921;53.614;9.882;2023-04-24T04:14:45;22.35;;;20.63;;
21519;SDS011;10921;53.614;9.882;2023-04-24T04:17:11;20.75;;;19.35;;
21519;SDS011;10921;53.614;9.882;2023-04-24T04:19:38;19.95;;;18.60;;
21519;SDS011;10921;53.614;9.882;2023-04-24T04:22:04;20.02;;;18.55;;
21519;SDS011;10921;53.614;9.882;2023-04-24T04:24:31;20.50;;;18.90;;
21519;SDS011;10921;53.614;9.882;2023-04-24T04:26:58;20.05;;;18.45;;
21519;SDS011;10921;53.614;9.882;2023-04-24T04:29:24;19.40;;;18.00;;
21519;SDS011;10921;53.614;9.882;2023-04-24T04:31:52;19.63;;;18.08;;
21519;SDS011;10921;53.614;9.882;2023-04-24T04:34:18;19.42;;;17.95;;
21519;SDS011;10921;53.614;9.882;2023-04-24T04:36:45;19.58;;;17.92;;
21519;SDS011;10921;53.614;9.882;2023-04-24T04:39:12;18.33;;;16.92;;
21519;SDS011;10921;53.614;9.882;2023-04-24T04:41:41;18.95;;;17.55;;
21519;SDS011;10921;53.614;9.882;2023-04-24T04:44:07;19.52;;;18.02;;
21519;SDS011;10921;53.614;9.882;2023-04-24T04:46:34;18.38;;;17.13;;
21519;SDS011;10921;53.614;9.882;2023-04-24T04:49:02;18.50;;;17.20;;
21519;SDS011;10921;53.614;9.882;2023-04-24T04:51:29;18.40;;;16.95;;
21519;SDS011;10921;53.614;9.882;2023-04-24T04:53:56;17.38;;;16.20;;
21519;SDS011;10921;53.614;9.882;2023-04-24T04:56:22;18.17;;;16.98;;
21519;SDS011;10921;53.614;9.882;2023-04-24T04:58:49;17.42;;;16.23;;
21519;SDS011;10921;53.614;9.882;2023-04-24T05:01:15;16.33;;;15.23;;
21519;SDS011;10921;53.614;9.882;2023-04-24T05:03:43;17.77;;;16.50;;
21519;SDS011;10921;53.614;9.882;2023-04-24T05:06:10;16.83;;;15.73;;
21519;SDS011;10921;53.614;9.882;2023-04-24T05:08:36;16.95;;;15.70;;
21519;SDS011;10921;53.614;9.882;2023-04-24T05:11:03;15.80;;;14.70;;
21519;SDS011;10921;53.614;9.882;2023-04-24T05:13:29;16.35;;;15.15;;
21519;SDS011;10921;53.614;9.882;2023-04-24T05:16:06;15.27;;;14.27;;
21519;SDS011;10921;53.614;9.882;2023-04-24T05:18:33;15.77;;;14.68;;
21519;SDS011;10921;53.614;9.882;2023-04-24T05:20:59;16.38;;;15.07;;
21519;SDS011;10921;53.614;9.882;2023-04-24T05:23:26;16.23;;;14.93;;
21519;SDS011;10921;53.614;9.882;2023-04-24T05:25:52;15.90;;;14.80;;
21519;SDS011;10921;53.614;9.882;2023-04-24T05:28:19;15.68;;;14.68;;
21519;SDS011;10921;53.614;9.882;2023-04-24T05:30:46;15.85;;;14.75;;
21519;SDS011;10921;53.614;9.882;2023-04-24T05:33:12;15.18;;;14.18;;
21519;SDS011;10921;53.614;9.882;2023-04-24T05:35:40;15.07;;;13.98;;
21519;SDS011;10921;53.614;9.882;2023-04-24T05:38:12;14.80;;;13.60;;
21519;SDS011;10921;53.614;9.882;2023-04-24T05:40:39;14.85;;;13.80;;
21519;SDS011;10921;53.614;9.882;2023-04-24T05:43:06;14.13;;;13.20;;
21519;SDS011;10921;53.614;9.882;2023-04-24T05:45:32;13.55;;;12.60;;
21519;SDS011;10921;53.614;9.882;2023-04-24T05:48:01;13.10;;;12.20;;
21519;SDS011;10921;53.614;9.882;2023-04-24T05:50:28;12.40;;;11.60;;
21519;SDS011;10921;53.614;9.882;2023-04-24T05:52:55;13.10;;;11.90;;
21519;SDS011;10921;53.614;9.882;2023-04-24T05:55:24;11.90;;;11.10;;
21519;SDS011;10921;53.614;9.882;2023-04-24T05:57:51;12.40;;;11.40;;
21519;SDS011;10921;53.614;9.882;2023-04-24T06:00:18;12.10;;;11.30;;
21519;SDS011;10921;53.614;9.882;2023-04-24T06:02:46;12.30;;;11.50;;
21519;SDS011;10921;53.614;9.882;2023-04-24T06:05:13;13.05;;;11.98;;
21519;SDS011;10921;53.614;9.882;2023-04-24T06:07:41;13.50;;;12.20;;
21519;SDS011;10921;53.614;9.882;2023-04-24T06:10:08;12.43;;;11.52;;
21519;SDS011;10921;53.614;9.882;2023-04-24T06:12:35;12.73;;;11.60;;
21519;SDS011;10921;53.614;9.882;2023-04-24T06:15:03;12.73;;;11.73;;
21519;SDS011;10921;53.614;9.882;2023-04-24T06:17:30;12.45;;;11.52;;
21519;SDS011;10921;53.614;9.882;2023-04-24T06:19:57;12.18;;;11.38;;
21519;SDS011;10921;53.614;9.882;2023-04-24T06:22:23;11.80;;;10.95;;
21519;SDS011;10921;53.614;9.882;2023-04-24T06:24:49;11.95;;;11.15;;
21519;SDS011;10921;53.614;9.882;2023-04-24T06:27:16;12.00;;;11.07;;
21519;SDS011;10921;53.614;9.882;2023-04-24T06:29:42;11.80;;;11.00;;
21519;SDS011;10921;53.614;9.882;2023-04-24T06:32:09;10.98;;;10.27;;
21519;SDS011;10921;53.614;9.882;2023-04-24T06:34:36;11.70;;;10.80;;
21519;SDS011;10921;53.614;9.882;2023-04-24T06:37:03;11.82;;;10.70;;
21519;SDS011;10921;53.614;9.882;2023-04-24T06:39:29;11.90;;;11.00;;
21519;SDS011;10921;53.614;9.882;2023-04-24T06:41:56;12.23;;;11.32;;
21519;SDS011;10921;53.614;9.882;2023-04-24T06:44:22;11.68;;;10.88;;
21519;SDS011;10921;53.614;9.882;2023-04-24T06:46:49;12.65;;;11.68;;
21519;SDS011;10921;53.614;9.882;2023-04-24T06:49:15;12.57;;;11.43;;
21519;SDS011;10921;53.614;9.882;2023-04-24T06:51:42;12.35;;;11.35;;
21519;SDS011;10921;53.614;9.882;2023-04-24T06:54:14;11.60;;;10.80;;
21519;SDS011;10921;53.614;9.882;2023-04-24T06:56:41;12.43;;;11.52;;
21519;SDS011;10921;53.614;9.882;2023-04-24T06:59:07;13.32;;;12.15;;
21519;SDS011;10921;53.614;9.882;2023-04-24T07:01:34;12.40;;;11.50;;
21519;SDS011;10921;53.614;9.882;2023-04-24T07:04:00;12.25;;;11.25;;
21519;SDS011;10921;53.614;9.882;2023-04-24T07:06:28;12.68;;;11.88;;
21519;SDS011;10921;53.614;9.882;2023-04-24T07:08:56;14.70;;;13.52;;
21519;SDS011;10921;53.614;9.882;2023-04-24T07:11:23;12.13;;;11.10;;
21519;SDS011;10921;53.614;9.882;2023-04-24T07:13:50;14.07;;;13.15;;
21519;SDS011;10921;53.614;9.882;2023-04-24T07:16:16;12.82;;;11.50;;
21519;SDS011;10921;53.614;9.882;2023-04-24T07:18:42;12.77;;;11.82;;
21519;SDS011;10921;53.614;9.882;2023-04-24T07:21:09;12.95;;;11.80;;
21519;SDS011;10921;53.614;9.882;2023-04-24T07:23:36;12.50;;;11.60;;
21519;SDS011;10921;53.614;9.882;2023-04-24T07:26:02;13.10;;;12.00;;
21519;SDS011;10921;53.614;9.882;2023-04-24T07:28:29;13.02;;;12.02;;
21519;SDS011;10921;53.614;9.882;2023-04-24T07:30:58;13.20;;;12.20;;
21519;SDS011;10921;53.614;9.882;2023-04-24T07:33:26;13.48;;;12.30;;
21519;SDS011;10921;53.614;9.882;2023-04-24T07:35:53;13.93;;;12.93;;
21519;SDS011;10921;53.614;9.882;2023-04-24T07:38:20;12.77;;;11.60;;
21519;SDS011;10921;53.614;9.882;2023-04-24T07:40:48;13.55;;;12.65;;
21519;SDS011;10921;53.614;9.882;2023-04-24T07:43:15;14.40;;;13.30;;
21519;SDS011;10921;53.614;9.882;2023-04-24T07:45:41;14.13;;;13.02;;
21519;SDS011;10921;53.614;9.882;2023-04-24T07:48:08;14.68;;;13.45;;
21519;SDS011;10921;53.614;9.882;2023-04-24T07:50:35;15.02;;;13.93;;
21519;SDS011;10921;53.614;9.882;2023-04-24T07:53:02;14.27;;;13.25;;
21519;SDS011;10921;53.614;9.882;2023-04-24T07:55:28;15.25;;;13.98;;
21519;SDS011;10921;53.614;9.882;2023-04-24T07:57:55;15.38;;;14.18;;
21519;SDS011;10921;53.614;9.882;2023-04-24T08:00:21;15.10;;;13.88;;
21519;SDS011;10921;53.614;9.882;2023-04-24T08:02:48;15.55;;;14.25;;
21519;SDS011;10921;53.614;9.882;2023-04-24T08:05:15;15.82;;;14.52;;
21519;SDS011;10921;53.614;9.882;2023-04-24T08:07:42;15.30;;;14.10;;
21519;SDS011;10921;53.614;9.882;2023-04-24T08:10:11;15.38;;;14.05;;
21519;SDS011;10921;53.614;9.882;2023-04-24T08:12:38;15.33;;;14.00;;
21519;SDS011;10921;53.614;9.882;2023-04-24T08:15:04;14.57;;;13.43;;
21519;SDS011;10921;53.614;9.882;2023-04-24T08:17:32;15.15;;;13.85;;
21519;SDS011;10921;53.614;9.882;2023-04-24T08:19:58;15.00;;;13.48;;
21519;SDS011;10921;53.614;9.882;2023-04-24T08:22:27;14.65;;;13.52;;
21519;SDS011;10921;53.614;9.882;2023-04-24T08:24:54;13.93;;;12.80;;
21519;SDS011;10921;53.614;9.882;2023-04-24T08:27:23;14.15;;;13.05;;
21519;SDS011;10921;53.614;9.882;2023-04-24T08:29:50;14.35;;;13.35;;
21519;SDS011;10921;53.614;9.882;2023-04-24T08:32:16;15.02;;;13.82;;
21519;SDS011;10921;53.614;9.882;2023-04-24T08:34:43;15.00;;;13.80;;
21519;SDS011;10921;53.614;9.882;2023-04-24T08:37:09;14.82;;;13.63;;
21519;SDS011;10921;53.614;9.882;2023-04-24T08:39:37;14.85;;;13.73;;
21519;SDS011;10921;53.614;9.882;2023-04-24T08:42:04;15.40;;;13.85;;
21519;SDS011;10921;53.614;9.882;2023-04-24T08:47:02;14.98;;;13.52;;
21519;SDS011;10921;53.614;9.882;2023-04-24T08:49:29;15.63;;;14.43;;
21519;SDS011;10921;53.614;9.882;2023-04-24T08:51:55;15.32;;;13.98;;
21519;SDS011;10921;53.614;9.882;2023-04-24T08:54:22;15.40;;;14.20;;
21519;SDS011;10921;53.614;9.882;2023-04-24T08:56:53;16.05;;;14.65;;
21519;SDS011;10921;53.614;9.882;2023-04-24T08:59:23;16.52;;;15.25;;
21519;SDS011;10921;53.614;9.882;2023-04-24T09:01:50;16.20;;;14.90;;
21519;SDS011;10921;53.614;9.882;2023-04-24T09:04:18;16.33;;;14.82;;
21519;SDS011;10921;53.614;9.882;2023-04-24T09:06:48;16.33;;;15.00;;
21519;SDS011;10921;53.614;9.882;2023-04-24T09:09:16;16.92;;;15.27;;
21519;SDS011;10921;53.614;9.882;2023-04-24T09:11:44;17.55;;;15.85;;
21519;SDS011;10921;53.614;9.882;2023-04-24T09:14:10;17.52;;;15.80;;
21519;SDS011;10921;53.614;9.882;2023-04-24T09:16:37;18.25;;;16.75;;
21519;SDS011;10921;53.614;9.882;2023-04-24T09:19:04;18.15;;;16.45;;
21519;SDS011;10921;53.614;9.882;2023-04-24T09:21:31;16.83;;;15.52;;
21519;SDS011;10921;53.614;9.882;2023-04-24T09:24:00;16.50;;;14.90;;
21519;SDS011;10921;53.614;9.882;2023-04-24T09:26:29;16.65;;;15.20;;
21519;SDS011;10921;53.614;9.882;2023-04-24T09:28:58;17.80;;;16.20;;
21519;SDS011;10921;53.614;9.882;2023-04-24T09:31:26;16.65;;;15.18;;
21519;SDS011;10921;53.614;9.882;2023-04-24T09:33:55;18.00;;;16.27;;
21519;SDS011;10921;53.614;9.882;2023-04-24T09:36:37;17.13;;;15.50;;
21519;SDS011;10921;53.614;9.882;2023-04-24T09:39:10;16.65;;;15.18;;
21519;SDS011;10921;53.614;9.882;2023-04-24T09:44:26;16.77;;;15.27;;
21519;SDS011;10921;53.614;9.882;2023-04-24T09:46:54;17.42;;;15.93;;
21519;SDS011;10921;53.614;9.882;2023-04-24T09:49:22;17.05;;;15.52;;
21519;SDS011;10921;53.614;9.882;2023-04-24T09:51:49;17.33;;;15.73;;
21519;SDS011;10921;53.614;9.882;2023-04-24T09:54:17;17.50;;;15.80;;
21519;SDS011;10921;53.614;9.882;2023-04-24T09:56:49;17.05;;;15.20;;
21519;SDS011;10921;53.614;9.882;2023-04-24T09:59:17;19.55;;;17.75;;
21519;SDS011;10921;53.614;9.882;2023-04-24T10:01:45;18.15;;;16.58;;
21519;SDS011;10921;53.614;9.882;2023-04-24T10:04:16;18.40;;;16.63;;
21519;SDS011;10921;53.614;9.882;2023-04-24T10:06:47;18.98;;;17.00;;
21519;SDS011;10921;53.614;9.882;2023-04-24T10:09:15;18.88;;;17.00;;
21519;SDS011;10921;53.614;9.882;2023-04-24T10:11:44;18.70;;;16.90;;
21519;SDS011;10921;53.614;9.882;2023-04-24T10:14:13;18.38;;;16.55;;
21519;SDS011;10921;53.614;9.882;2023-04-24T10:16:42;19.73;;;17.90;;
21519;SDS011;10921;53.614;9.882;2023-04-24T10:19:10;21.05;;;18.98;;
21519;SDS011;10921;53.614;9.882;2023-04-24T10:21:40;20.33;;;18.23;;
21519;SDS011;10921;53.614;9.882;2023-04-24T10:24:13;19.65;;;17.90;;
21519;SDS011;10921;53.614;9.882;2023-04-24T10:26:44;20.10;;;18.10;;
21519;SDS011;10921;53.614;9.882;2023-04-24T10:29:16;19.80;;;17.85;;
21519;SDS011;10921;53.614;9.882;2023-04-24T10:31:44;21.92;;;19.83;;
21519;SDS011;10921;53.614;9.882;2023-04-24T10:34:14;21.45;;;19.35;;
21519;SDS011;10921;53.614;9.882;2023-04-24T10:36:44;24.42;;;20.05;;
21519;SDS011;10921;53.614;9.882;2023-04-24T10:39:15;22.60;;;20.38;;
21519;SDS011;10921;53.614;9.882;2023-04-24T10:41:42;25.52;;;21.45;;
21519;SDS011;10921;53.614;9.882;2023-04-24T10:44:10;22.38;;;20.38;;
21519;SDS011;10921;53.614;9.882;2023-04-24T10:46:38;21.85;;;19.70;;
21519;SDS011;10921;53.614;9.882;2023-04-24T10:49:09;23.83;;;20.50;;
21519;SDS011;10921;53.614;9.882;2023-04-24T10:51:46;23.08;;;20.70;;
21519;SDS011;10921;53.614;9.882;2023-04-24T10:56:50;25.40;;;22.55;;
21519;SDS011;10921;53.614;9.882;2023-04-24T10:59:25;24.50;;;20.98;;
21519;SDS011;10921;53.614;9.882;2023-04-24T11:01:53;22.83;;;19.80;;
21519;SDS011;10921;53.614;9.882;2023-04-24T11:04:30;23.25;;;20.85;;
21519;SDS011;10921;53.614;9.882;2023-04-24T11:06:57;23.25;;;20.88;;
21519;SDS011;10921;53.614;9.882;2023-04-24T11:09:27;24.33;;;21.77;;
21519;SDS011;10921;53.614;9.882;2023-04-24T11:12:06;22.70;;;20.50;;
21519;SDS011;10921;53.614;9.882;2023-04-24T11:20:06;23.67;;;21.25;;
21519;SDS011;10921;53.614;9.882;2023-04-24T11:22:53;22.95;;;20.63;;
21519;SDS011;10921;53.614;9.882;2023-04-24T11:25:24;22.92;;;20.60;;
21519;SDS011;10921;53.614;9.882;2023-04-24T11:27:52;22.90;;;20.45;;
21519;SDS011;10921;53.614;9.882;2023-04-24T11:30:29;22.38;;;20.25;;
21519;SDS011;10921;53.614;9.882;2023-04-24T11:33:05;21.73;;;19.50;;
21519;SDS011;10921;53.614;9.882;2023-04-24T11:35:50;23.20;;;20.73;;
21519;SDS011;10921;53.614;9.882;2023-04-24T11:38:17;25.35;;;22.63;;
21519;SDS011;10921;53.614;9.882;2023-04-24T11:40:50;24.98;;;20.60;;
21519;SDS011;10921;53.614;9.882;2023-04-24T11:43:18;22.15;;;19.95;;
21519;SDS011;10921;53.614;9.882;2023-04-24T11:45:48;22.95;;;20.65;;
21519;SDS011;10921;53.614;9.882;2023-04-24T11:48:19;21.52;;;19.42;;
21519;SDS011;10921;53.614;9.882;2023-04-24T11:50:50;25.60;;;20.65;;
21519;SDS011;10921;53.614;9.882;2023-04-24T11:53:18;21.70;;;19.70;;
21519;SDS011;10921;53.614;9.882;2023-04-24T11:55:46;21.83;;;19.52;;
21519;SDS011;10921;53.614;9.882;2023-04-24T11:58:13;22.00;;;19.88;;
21519;SDS011;10921;53.614;9.882;2023-04-24T12:00:39;21.10;;;19.05;;
21519;SDS011;10921;53.614;9.882;2023-04-24T12:03:07;19.67;;;17.77;;
21519;SDS011;10921;53.614;9.882;2023-04-24T12:05:35;20.33;;;18.27;;
21519;SDS011;10921;53.614;9.882;2023-04-24T12:08:02;20.75;;;17.60;;
21519;SDS011;10921;53.614;9.882;2023-04-24T12:10:29;18.17;;;16.48;;
21519;SDS011;10921;53.614;9.882;2023-04-24T12:12:58;18.90;;;16.90;;
21519;SDS011;10921;53.614;9.882;2023-04-24T12:15:26;18.45;;;16.48;;
21519;SDS011;10921;53.614;9.882;2023-04-24T12:17:54;18.83;;;16.98;;
21519;SDS011;10921;53.614;9.882;2023-04-24T12:20:26;17.85;;;16.25;;
21519;SDS011;10921;53.614;9.882;2023-04-24T12:22:53;19.25;;;16.02;;
21519;SDS011;10921;53.614;9.882;2023-04-24T12:25:22;17.92;;;16.10;;
21519;SDS011;10921;53.614;9.882;2023-04-24T12:28:14;17.60;;;15.98;;
21519;SDS011;10921;53.614;9.882;2023-04-24T12:30:44;18.85;;;16.88;;
21519;SDS011;10921;53.614;9.882;2023-04-24T12:33:18;16.75;;;15.30;;
21519;SDS011;10921;53.614;9.882;2023-04-24T12:35:46;18.55;;;16.85;;
21519;SDS011;10921;53.614;9.882;2023-04-24T12:38:13;21.45;;;17.88;;
21519;SDS011;10921;53.614;9.882;2023-04-24T12:40:42;18.13;;;16.33;;
21519;SDS011;10921;53.614;9.882;2023-04-24T12:43:16;18.92;;;17.33;;
21519;SDS011;10921;53.614;9.882;2023-04-24T12:45:44;19.48;;;17.58;;
21519;SDS011;10921;53.614;9.882;2023-04-24T12:48:13;19.30;;;17.48;;
21519;SDS011;10921;53.614;9.882;2023-04-24T12:50:40;21.42;;;17.80;;
21519;SDS011;10921;53.614;9.882;2023-04-24T12:53:11;18.55;;;16.92;;
21519;SDS011;10921;53.614;9.882;2023-04-24T12:55:38;19.25;;;17.38;;
21519;SDS011;10921;53.614;9.882;2023-04-24T12:58:04;18.40;;;16.70;;
21519;SDS011;10921;53.614;9.882;2023-04-24T13:00:31;19.05;;;17.15;;
21519;SDS011;10921;53.614;9.882;2023-04-24T13:02:58;18.58;;;16.92;;
21519;SDS011;10921;53.614;9.882;2023-04-24T13:05:25;18.23;;;16.63;;
21519;SDS011;10921;53.614;9.882;2023-04-24T13:07:51;17.73;;;16.02;;
21519;SDS011;10921;53.614;9.882;2023-04-24T13:10:18;16.65;;;15.18;;
21519;SDS011;10921;53.614;9.882;2023-04-24T13:12:45;17.80;;;16.20;;
21519;SDS011;10921;53.614;9.882;2023-04-24T13:15:12;17.48;;;16.00;;
21519;SDS011;10921;53.614;9.882;2023-04-24T13:17:39;17.45;;;15.98;;
21519;SDS011;10921;53.614;9.882;2023-04-24T13:20:08;17.33;;;15.68;;
21519;SDS011;10921;53.614;9.882;2023-04-24T13:22:35;16.88;;;15.48;;
21519;SDS011;10921;53.614;9.882;2023-04-24T13:25:02;17.17;;;15.48;;
21519;SDS011;10921;53.614;9.882;2023-04-24T13:27:29;16.20;;;14.85;;
21519;SDS011;10921;53.614;9.882;2023-04-24T13:29:56;16.08;;;14.68;;
21519;SDS011;10921;53.614;9.882;2023-04-24T13:32:22;15.90;;;14.60;;
21519;SDS011;10921;53.614;9.882;2023-04-24T13:34:49;16.33;;;14.77;;
21519;SDS011;10921;53.614;9.882;2023-04-24T13:37:15;17.00;;;15.60;;
21519;SDS011;10921;53.614;9.882;2023-04-24T13:39:42;17.80;;;15.98;;
21519;SDS011;10921;53.614;9.882;2023-04-24T13:42:08;21.90;;;15.93;;
21519;SDS011;10921;53.614;9.882;2023-04-24T13:44:35;17.25;;;15.75;;
21519;SDS011;10921;53.614;9.882;2023-04-24T13:47:02;17.33;;;15.77;;
21519;SDS011;10921;53.614;9.882;2023-04-24T13:49:28;16.55;;;15.25;;
21519;SDS011;10921;53.614;9.882;2023-04-24T13:51:55;16.20;;;14.63;;
21519;SDS011;10921;53.614;9.882;2023-04-24T13:54:22;15.80;;;14.32;;
21519;SDS011;10921;53.614;9.882;2023-04-24T13:56:51;16.17;;;14.87;;
21519;SDS011;10921;53.614;9.882;2023-04-24T13:59:19;16.33;;;14.75;;
21519;SDS011;10921;53.614;9.882;2023-04-24T14:01:46;17.67;;;16.15;;
21519;SDS011;10921;53.614;9.882;2023-04-24T14:04:14;16.70;;;15.23;;
21519;SDS011;10921;53.614;9.882;2023-04-24T14:06:40;16.80;;;15.27;;
21519;SDS011;10921;53.614;9.882;2023-04-24T14:09:07;14.13;;;12.95;;
21519;SDS011;10921;53.614;9.882;2023-04-24T14:11:34;15.70;;;14.15;;
21519;SDS011;10921;53.614;9.882;2023-04-24T14:14:01;16.20;;;14.80;;
21519;SDS011;10921;53.614;9.882;2023-04-24T14:16:28;17.42;;;15.93;;
21519;SDS011;10921;53.614;9.882;2023-04-24T14:18:54;21.00;;;19.15;;
21519;SDS011;10921;53.614;9.882;2023-04-24T14:21:22;25.70;;;23.48;;
21519;SDS011;10921;53.614;9.882;2023-04-24T14:23:48;32.08;;;29.30;;
21519;SDS011;10921;53.614;9.882;2023-04-24T14:26:15;37.03;;;33.72;;
21519;SDS011;10921;53.614;9.882;2023-04-24T14:28:41;40.10;;;36.08;;
21519;SDS011;10921;53.614;9.882;2023-04-24T14:31:08;41.90;;;38.13;;
21519;SDS011;10921;53.614;9.882;2023-04-24T14:33:35;41.67;;;37.63;;
21519;SDS011;10921;53.614;9.882;2023-04-24T14:36:01;42.05;;;38.25;;
21519;SDS011;10921;53.614;9.882;2023-04-24T14:38:29;43.40;;;39.40;;